createdAt,value
2019-05-06T00:02:17.950Z,11.10
2019-05-06T00:04:46.417Z,11.10
2019-05-06T00:07:14.875Z,11.20
2019-05-06T00:09:44.189Z,11.20
2019-05-06T00:12:14.531Z,11.20
2019-05-06T00:14:43.642Z,11.20
2019-05-06T00:17:14.434Z,11.20
2019-05-06T00:19:44.630Z,11.30
2019-05-06T00:22:14.204Z,11.30
2019-05-06T00:24:47.352Z,11.30
2019-05-06T00:27:17.451Z,11.30
2019-05-06T00:29:46.923Z,11.30
2019-05-06T00:32:16.034Z,11.40
2019-05-06T00:34:44.541Z,11.40
2019-05-06T00:37:14.645Z,11.40
2019-05-06T00:39:50.733Z,11.40
2019-05-06T00:42:24.651Z,11.50
2019-05-06T00:44:53.725Z,11.50
2019-05-06T00:47:24.149Z,11.50
2019-05-06T00:49:54.581Z,11.50
2019-05-06T00:52:23.944Z,11.50
2019-05-06T00:54:54.694Z,11.50
2019-05-06T00:57:25.106Z,11.50
2019-05-06T00:59:53.921Z,11.50
2019-05-06T01:02:23.473Z,11.40
2019-05-06T01:04:54.024Z,11.40
2019-05-06T01:07:23.647Z,11.40
2019-05-06T01:09:54.007Z,11.40
2019-05-06T01:12:23.973Z,11.40
2019-05-06T01:14:54.611Z,11.40
2019-05-06T01:17:24.364Z,11.40
2019-05-06T01:19:54.094Z,11.30
2019-05-06T01:22:24.625Z,11.30
2019-05-06T01:24:52.939Z,11.30
2019-05-06T01:27:21.396Z,11.30
2019-05-06T01:29:49.849Z,11.40
2019-05-06T01:32:18.306Z,11.40
2019-05-06T01:34:46.783Z,11.40
2019-05-06T01:37:15.215Z,11.40
2019-05-06T01:39:50.787Z,11.50
2019-05-06T01:42:24.636Z,11.50
2019-05-06T01:44:53.879Z,11.50
2019-05-06T01:47:23.801Z,11.50
2019-05-06T01:49:53.764Z,11.40
2019-05-06T01:52:24.081Z,11.40
2019-05-06T01:54:54.219Z,11.40
2019-05-06T01:57:24.428Z,11.40
2019-05-06T01:59:54.023Z,11.40
2019-05-06T02:02:23.954Z,11.40
2019-05-06T02:04:54.124Z,11.40
2019-05-06T02:07:24.210Z,11.40
2019-05-06T02:10:14.140Z,11.40
2019-05-06T02:12:44.237Z,11.40
2019-05-06T02:15:14.579Z,11.30
2019-05-06T02:17:44.089Z,11.30
2019-05-06T02:20:13.783Z,11.40
2019-05-06T02:22:47.094Z,11.40
2019-05-06T02:25:19.756Z,11.40
2019-05-06T02:27:48.187Z,11.40
2019-05-06T02:30:18.411Z,11.50
2019-05-06T02:32:48.515Z,11.50
2019-05-06T02:35:27.579Z,11.50
2019-05-06T02:37:56.179Z,11.50
2019-05-06T02:40:29.341Z,11.50
2019-05-06T02:42:58.450Z,11.50
2019-05-06T02:45:27.004Z,11.50
2019-05-06T02:47:57.108Z,11.50
2019-05-06T02:50:27.222Z,11.50
2019-05-06T02:52:55.729Z,11.50
2019-05-06T02:55:24.310Z,11.50
2019-05-06T02:57:53.606Z,11.50
2019-05-06T03:00:23.876Z,11.50
2019-05-06T03:02:54.091Z,11.50
2019-05-06T03:05:23.730Z,11.50
2019-05-06T03:07:57.067Z,11.50
2019-05-06T03:10:24.771Z,11.50
2019-05-06T03:12:53.770Z,11.50
2019-05-06T03:15:24.078Z,11.50
2019-05-06T03:17:55.339Z,11.50
2019-05-06T03:20:53.327Z,11.50
2019-05-06T03:23:35.365Z,11.50
2019-05-06T03:26:06.508Z,11.40
2019-05-06T03:28:34.189Z,11.40
2019-05-06T03:31:06.962Z,11.40
2019-05-06T03:33:50.163Z,11.40
2019-05-06T03:36:15.466Z,11.40
2019-05-06T03:38:33.840Z,11.40
2019-05-06T03:41:03.119Z,11.30
2019-05-06T03:43:33.862Z,11.30
2019-05-06T03:46:18.765Z,11.30
2019-05-06T03:48:53.054Z,11.30
2019-05-06T03:51:23.374Z,11.20
2019-05-06T03:53:53.957Z,11.10
2019-05-06T03:56:23.953Z,11.10
2019-05-06T03:58:54.003Z,11.10
2019-05-06T04:01:24.034Z,11.10
2019-05-06T04:03:56.968Z,11.00
2019-05-06T04:06:24.206Z,11.00
2019-05-06T04:08:53.685Z,11.00
2019-05-06T04:11:23.720Z,11.00
2019-05-06T04:13:53.841Z,11.00
2019-05-06T04:16:33.769Z,10.90
2019-05-06T04:19:23.774Z,10.90
2019-05-06T04:21:59.995Z,10.90
2019-05-06T04:24:35.771Z,10.90
2019-05-06T04:27:29.172Z,10.80
2019-05-06T04:29:58.916Z,10.80
2019-05-06T04:32:27.499Z,10.70
2019-05-06T04:34:56.305Z,10.50
2019-05-06T04:37:24.829Z,10.40
2019-05-06T04:39:53.727Z,10.30
2019-05-06T04:42:23.283Z,10.30
2019-05-06T04:44:53.246Z,10.30
2019-05-06T04:47:24.135Z,10.30
2019-05-06T04:49:53.193Z,10.30
2019-05-06T04:52:22.911Z,10.20
2019-05-06T04:54:54.373Z,10.10
2019-05-06T04:57:23.802Z,10.00
2019-05-06T04:59:54.166Z,10.00
2019-05-06T05:02:23.089Z,10.00
2019-05-06T05:04:53.155Z,10.00
2019-05-06T05:07:22.487Z,10.00
2019-05-06T05:09:53.514Z,10.00
2019-05-06T05:12:33.644Z,10.10
2019-05-06T05:15:16.222Z,10.10
2019-05-06T05:17:49.368Z,10.10
2019-05-06T05:20:17.807Z,10.10
2019-05-06T05:22:46.727Z,10.00
2019-05-06T05:25:15.239Z,10.10
2019-05-06T05:27:43.711Z,10.10
2019-05-06T05:30:12.612Z,10.10
2019-05-06T05:32:42.870Z,10.00
2019-05-06T05:35:12.764Z,10.00
2019-05-06T05:37:42.060Z,10.00
2019-05-06T05:40:12.796Z,10.00
2019-05-06T05:42:42.721Z,10.10
2019-05-06T05:45:12.826Z,10.20
2019-05-06T05:47:42.514Z,10.30
2019-05-06T05:50:32.482Z,10.50
2019-05-06T05:53:02.523Z,10.50
2019-05-06T05:55:33.039Z,10.60
2019-05-06T05:58:03.225Z,10.70
2019-05-06T06:00:33.274Z,10.80
2019-05-06T06:03:02.889Z,10.90
2019-05-06T06:05:32.976Z,10.90
2019-05-06T06:08:02.996Z,11.00
2019-05-06T06:10:42.605Z,11.10
2019-05-06T06:13:12.759Z,11.10
2019-05-06T06:15:52.244Z,11.10
2019-05-06T06:18:25.203Z,11.20
2019-05-06T06:20:58.176Z,11.20
2019-05-06T06:23:34.464Z,11.20
2019-05-06T06:26:03.945Z,11.20
2019-05-06T06:28:33.371Z,11.30
2019-05-06T06:31:06.052Z,11.30
2019-05-06T06:33:34.511Z,11.30
2019-05-06T06:36:22.941Z,11.30
2019-05-06T06:38:52.832Z,11.30
2019-05-06T06:41:22.836Z,11.40
2019-05-06T06:43:53.540Z,11.30
2019-05-06T06:46:22.485Z,11.20
2019-05-06T06:48:52.723Z,11.10
2019-05-06T06:51:23.450Z,11.20
2019-05-06T06:53:52.944Z,11.20
2019-05-06T06:56:26.548Z,11.20
2019-05-06T06:59:05.891Z,11.30
2019-05-06T07:01:53.008Z,11.40
2019-05-06T07:04:26.921Z,11.50
2019-05-06T07:06:58.469Z,11.60
2019-05-06T07:09:29.648Z,11.80
2019-05-06T07:11:57.087Z,12.00
2019-05-06T07:14:25.552Z,12.20
2019-05-06T07:16:54.056Z,12.40
2019-05-06T07:19:24.235Z,12.60
2019-05-06T07:21:54.307Z,13.10
2019-05-06T07:24:22.995Z,13.40
2019-05-06T07:26:53.297Z,13.80
2019-05-06T07:29:26.022Z,14.10
2019-05-06T07:31:53.448Z,14.50
2019-05-06T07:34:22.898Z,14.90
2019-05-06T07:36:52.457Z,15.20
2019-05-06T07:39:23.771Z,15.50
2019-05-06T07:41:56.387Z,15.60
2019-05-06T07:44:43.243Z,15.70
2019-05-06T07:47:15.542Z,15.80
2019-05-06T07:49:43.891Z,15.80
2019-05-06T07:52:12.506Z,15.70
2019-05-06T07:54:42.388Z,15.90
2019-05-06T07:57:12.654Z,16.10
2019-05-06T07:59:42.924Z,16.50
2019-05-06T08:02:13.039Z,16.90
2019-05-06T08:04:42.205Z,17.40
2019-05-06T08:07:12.639Z,17.90
2019-05-06T08:09:42.227Z,18.40
2019-05-06T08:12:12.384Z,19.10
2019-05-06T08:14:43.063Z,19.80
2019-05-06T08:17:14.882Z,20.20
2019-05-06T08:19:43.326Z,20.40
2019-05-06T08:22:16.310Z,20.90
2019-05-06T08:24:44.755Z,21.30
2019-05-06T08:27:13.208Z,21.50
2019-05-06T08:29:42.455Z,21.70
2019-05-06T08:32:12.249Z,21.90
2019-05-06T08:34:42.189Z,22.10
2019-05-06T08:37:15.290Z,22.20
2019-05-06T08:39:45.944Z,22.10
2019-05-06T08:42:13.927Z,22.10
2019-05-06T08:44:42.822Z,22.00
2019-05-06T08:47:13.269Z,22.10
2019-05-06T08:49:59.138Z,22.30
2019-05-06T08:52:29.266Z,22.40
2019-05-06T08:55:02.336Z,22.30
2019-05-06T08:57:29.743Z,21.70
2019-05-06T08:59:58.180Z,21.40
2019-05-06T09:02:26.632Z,21.00
2019-05-06T09:04:55.066Z,20.50
2019-05-06T09:07:23.900Z,20.00
2019-05-06T09:09:52.759Z,19.70
2019-05-06T09:12:22.332Z,19.60
2019-05-06T09:14:53.094Z,19.70
2019-05-06T09:17:22.611Z,19.70
2019-05-06T09:19:53.479Z,19.60
2019-05-06T09:22:23.501Z,19.60
2019-05-06T09:24:53.070Z,19.60
2019-05-06T09:27:23.342Z,19.60
2019-05-06T09:29:52.872Z,19.40
2019-05-06T09:32:26.017Z,19.20
2019-05-06T09:34:56.195Z,18.90
2019-05-06T09:37:24.678Z,18.60
2019-05-06T09:39:53.608Z,18.40
2019-05-06T09:42:23.057Z,18.10
2019-05-06T09:44:54.163Z,17.80
2019-05-06T09:47:23.801Z,17.60
2019-05-06T09:49:53.110Z,17.40
2019-05-06T09:52:23.227Z,17.20
2019-05-06T09:54:53.711Z,17.10
2019-05-06T09:57:39.450Z,17.00
2019-05-06T10:00:08.423Z,17.00
2019-05-06T10:02:36.917Z,17.10
2019-05-06T10:05:06.723Z,17.40
2019-05-06T10:07:35.155Z,17.80
2019-05-06T10:10:04.830Z,18.10
2019-05-06T10:12:34.965Z,18.30
2019-05-06T10:15:04.203Z,18.30
2019-05-06T10:17:32.788Z,18.20
2019-05-06T10:20:02.858Z,18.20
2019-05-06T10:22:36.416Z,18.00
2019-05-06T10:25:06.578Z,17.90
2019-05-06T10:27:36.166Z,17.80
2019-05-06T10:30:09.378Z,17.70
2019-05-06T10:32:39.468Z,17.70
2019-05-06T10:35:08.735Z,17.60
2019-05-06T10:37:46.139Z,17.60
2019-05-06T10:40:23.154Z,17.50
2019-05-06T10:42:57.294Z,17.40
2019-05-06T10:45:32.419Z,17.30
2019-05-06T10:48:02.473Z,17.20
2019-05-06T10:50:33.521Z,17.20
2019-05-06T10:53:23.613Z,17.10
2019-05-06T10:55:53.965Z,17.10
2019-05-06T10:58:22.815Z,17.00
2019-05-06T11:00:53.322Z,17.00
2019-05-06T11:03:23.042Z,17.10
2019-05-06T11:05:53.462Z,17.10
2019-05-06T11:08:22.337Z,16.90
2019-05-06T11:10:53.225Z,16.90
2019-05-06T11:13:21.065Z,16.80
2019-05-06T11:15:49.524Z,16.70
2019-05-06T11:18:17.964Z,16.60
2019-05-06T11:20:46.463Z,16.40
2019-05-06T11:23:14.983Z,16.20
2019-05-06T11:25:43.571Z,16.00
2019-05-06T11:28:30.119Z,15.90
2019-05-06T11:31:02.533Z,15.80
2019-05-06T11:33:32.960Z,15.70
2019-05-06T11:36:19.610Z,15.50
2019-05-06T11:38:48.603Z,15.40
2019-05-06T11:41:17.241Z,15.20
2019-05-06T11:43:45.979Z,15.20
2019-05-06T11:46:14.779Z,15.30
2019-05-06T11:48:43.358Z,15.60
2019-05-06T11:51:13.574Z,16.10
2019-05-06T11:53:42.006Z,16.70
2019-05-06T11:56:12.646Z,17.40
2019-05-06T11:58:45.212Z,17.80
2019-05-06T12:01:18.301Z,18.00
2019-05-06T12:03:46.917Z,17.90
2019-05-06T12:06:15.519Z,17.80
2019-05-06T12:08:44.067Z,17.70
2019-05-06T12:11:12.793Z,17.70
2019-05-06T12:13:42.519Z,17.80
2019-05-06T12:16:14.057Z,18.00
2019-05-06T12:18:42.232Z,18.30
2019-05-06T12:21:14.600Z,18.50
2019-05-06T12:23:44.774Z,18.80
2019-05-06T12:26:13.179Z,19.10
2019-05-06T12:28:43.482Z,19.50
2019-05-06T12:31:12.776Z,20.00
2019-05-06T12:33:43.050Z,20.40
2019-05-06T12:36:20.194Z,20.80
2019-05-06T12:39:07.222Z,21.10
2019-05-06T12:41:37.295Z,21.20
2019-05-06T12:44:05.889Z,21.20
2019-05-06T12:46:38.636Z,21.10
2019-05-06T12:49:07.097Z,21.10
2019-05-06T12:51:35.609Z,21.10
2019-05-06T12:54:04.346Z,21.20
2019-05-06T12:56:33.213Z,21.20
2019-05-06T12:59:02.106Z,21.20
2019-05-06T13:01:33.932Z,21.10
2019-05-06T13:04:04.365Z,20.80
2019-05-06T13:06:33.450Z,20.70
2019-05-06T13:09:05.090Z,20.50
2019-05-06T13:11:32.228Z,20.10
2019-05-06T13:14:03.451Z,19.60
2019-05-06T13:16:33.546Z,19.10
2019-05-06T13:19:03.353Z,18.60
2019-05-06T13:21:32.806Z,18.20
2019-05-06T13:24:04.562Z,17.90
2019-05-06T13:26:33.472Z,17.70
2019-05-06T13:29:09.204Z,17.50
2019-05-06T13:31:37.834Z,17.40
2019-05-06T13:34:17.233Z,17.40
2019-05-06T13:36:46.210Z,17.30
2019-05-06T13:39:15.460Z,17.00
2019-05-06T13:41:44.203Z,16.70
2019-05-06T13:44:14.273Z,16.50
2019-05-06T13:46:44.516Z,16.40
2019-05-06T13:49:23.406Z,16.50
2019-05-06T13:52:04.460Z,16.50
2019-05-06T13:54:33.041Z,16.50
2019-05-06T13:57:02.975Z,16.50
2019-05-06T13:59:34.743Z,16.50
2019-05-06T14:02:08.215Z,16.60
2019-05-06T14:04:36.981Z,16.70
2019-05-06T14:07:07.354Z,16.70
2019-05-06T14:09:40.117Z,16.80
2019-05-06T14:12:06.203Z,16.80
2019-05-06T14:14:34.638Z,16.60
2019-05-06T14:17:03.171Z,16.40
2019-05-06T14:19:33.217Z,16.40
2019-05-06T14:22:03.062Z,16.20
2019-05-06T14:24:32.744Z,16.30
2019-05-06T14:27:03.069Z,16.30
2019-05-06T14:29:41.998Z,16.30
2019-05-06T14:32:12.293Z,16.40
2019-05-06T14:34:40.263Z,16.40
2019-05-06T14:37:08.728Z,16.40
2019-05-06T14:39:50.185Z,16.50
2019-05-06T14:42:08.994Z,16.50
2019-05-06T14:44:37.469Z,16.60
2019-05-06T14:47:08.081Z,16.60
2019-05-06T14:49:36.728Z,16.70
2019-05-06T14:52:05.287Z,16.70
2019-05-06T14:54:35.523Z,16.60
2019-05-06T14:57:14.054Z,16.60
2019-05-06T14:59:42.506Z,16.60
2019-05-06T15:02:13.185Z,16.60
2019-05-06T15:04:43.537Z,16.70
2019-05-06T15:07:13.413Z,16.70
2019-05-06T15:09:55.816Z,16.80
2019-05-06T15:12:13.051Z,16.80
2019-05-06T15:14:42.596Z,16.80
2019-05-06T15:17:11.238Z,16.90
2019-05-06T15:19:39.799Z,16.90
2019-05-06T15:22:08.378Z,16.80
2019-05-06T15:24:36.891Z,16.80
2019-05-06T15:27:05.397Z,16.80
2019-05-06T15:29:33.871Z,16.80
2019-05-06T15:32:10.070Z,16.80
2019-05-06T15:34:42.709Z,16.80
2019-05-06T15:37:13.067Z,16.90
2019-05-06T15:39:43.773Z,16.90
2019-05-06T15:42:12.890Z,16.90
2019-05-06T15:44:42.523Z,17.00
2019-05-06T15:47:13.187Z,17.00
2019-05-06T15:49:41.981Z,17.00
2019-05-06T15:52:12.460Z,17.00
2019-05-06T15:54:42.872Z,16.90
2019-05-06T15:57:11.024Z,17.00
2019-05-06T15:59:44.273Z,17.00
2019-05-06T16:02:10.099Z,17.00
2019-05-06T16:04:38.602Z,17.00
2019-05-06T16:07:07.057Z,17.10
2019-05-06T16:09:35.672Z,17.10
2019-05-06T16:12:04.344Z,17.10
2019-05-06T16:14:34.918Z,17.10
2019-05-06T16:17:02.978Z,17.00
2019-05-06T16:19:33.614Z,17.00
2019-05-06T16:22:03.874Z,16.90
2019-05-06T16:24:39.307Z,16.90
2019-05-06T16:27:07.838Z,16.90
2019-05-06T16:29:36.380Z,17.00
2019-05-06T16:32:06.783Z,17.00
2019-05-06T16:34:35.460Z,17.10
2019-05-06T16:37:04.135Z,17.10
2019-05-06T16:39:33.219Z,17.20
2019-05-06T16:42:03.544Z,17.20
2019-05-06T16:44:32.187Z,17.20
2019-05-06T16:47:02.904Z,17.20
2019-05-06T16:49:32.983Z,17.20
2019-05-06T16:52:02.491Z,17.10
2019-05-06T16:54:34.408Z,16.90
2019-05-06T16:57:06.460Z,16.80
2019-05-06T16:59:35.186Z,16.60
2019-05-06T17:02:05.366Z,16.50
2019-05-06T17:04:35.442Z,16.50
2019-05-06T17:07:04.174Z,16.30
2019-05-06T17:09:33.310Z,16.20
2019-05-06T17:12:04.314Z,16.20
2019-05-06T17:14:32.605Z,16.00
2019-05-06T17:17:03.184Z,15.90
2019-05-06T17:19:32.393Z,15.80
2019-05-06T17:22:03.015Z,15.80
2019-05-06T17:24:33.094Z,15.70
2019-05-06T17:27:02.698Z,15.70
2019-05-06T17:29:43.012Z,15.80
2019-05-06T17:32:16.196Z,15.80
2019-05-06T17:34:46.790Z,15.80
2019-05-06T17:37:36.841Z,15.80
2019-05-06T17:40:10.519Z,15.80
2019-05-06T17:42:36.839Z,15.80
2019-05-06T17:45:09.587Z,15.80
2019-05-06T17:47:39.800Z,15.80
2019-05-06T17:50:08.546Z,15.90
2019-05-06T17:52:37.084Z,15.90
2019-05-06T17:55:05.999Z,15.90
2019-05-06T17:57:34.616Z,15.90
2019-05-06T18:00:04.917Z,15.90
2019-05-06T18:02:33.405Z,15.90
2019-05-06T18:05:02.814Z,16.00
2019-05-06T18:07:32.652Z,15.90
2019-05-06T18:10:03.109Z,15.90
2019-05-06T18:12:33.421Z,15.90
2019-05-06T18:15:02.978Z,15.90
2019-05-06T18:17:33.128Z,15.80
2019-05-06T18:20:02.925Z,15.80
2019-05-06T18:22:32.726Z,15.80
2019-05-06T18:25:02.234Z,15.80
2019-05-06T18:27:32.556Z,15.70
2019-05-06T18:30:12.300Z,15.70
2019-05-06T18:32:33.317Z,15.70
2019-05-06T18:35:02.712Z,15.70
2019-05-06T18:37:33.175Z,15.70
2019-05-06T18:40:01.515Z,15.60
2019-05-06T18:42:29.974Z,15.60
2019-05-06T18:44:58.410Z,15.50
2019-05-06T18:47:26.868Z,15.50
2019-05-06T18:49:55.316Z,15.50
2019-05-06T18:52:23.782Z,15.50
2019-05-06T18:54:52.463Z,15.50
2019-05-06T18:57:22.693Z,15.50
2019-05-06T18:59:53.368Z,15.40
2019-05-06T19:02:22.888Z,15.40
2019-05-06T19:04:53.207Z,15.40
2019-05-06T19:07:22.184Z,15.40
2019-05-06T19:09:55.403Z,15.40
2019-05-06T19:12:31.810Z,15.30
2019-05-06T19:14:54.200Z,15.30
2019-05-06T19:17:22.719Z,15.20
2019-05-06T19:19:53.455Z,15.20
2019-05-06T19:22:22.870Z,15.20
2019-05-06T19:24:52.131Z,15.20
2019-05-06T19:27:24.626Z,15.10
2019-05-06T19:29:54.315Z,15.10
2019-05-06T19:32:22.576Z,15.10
2019-05-06T19:34:52.981Z,15.00
2019-05-06T19:37:23.358Z,15.00
2019-05-06T19:39:52.497Z,14.90
2019-05-06T19:42:22.374Z,14.90
2019-05-06T19:44:52.846Z,14.80
2019-05-06T19:47:21.658Z,14.80
2019-05-06T19:49:53.223Z,14.70
2019-05-06T19:52:21.471Z,14.50
2019-05-06T19:54:52.049Z,14.40
2019-05-06T19:57:20.311Z,14.20
2019-05-06T19:59:48.901Z,14.10
2019-05-06T20:02:17.758Z,14.00
2019-05-06T20:04:49.105Z,13.90
2019-05-06T20:07:19.534Z,13.80
2019-05-06T20:09:49.658Z,13.60
2019-05-06T20:12:19.792Z,13.50
2019-05-06T20:14:48.256Z,13.40
2019-05-06T20:17:16.694Z,13.30
2019-05-06T20:19:45.158Z,13.20
2019-05-06T20:22:13.592Z,13.00
2019-05-06T20:24:42.620Z,13.00
2019-05-06T20:27:13.327Z,12.90
2019-05-06T20:29:42.783Z,12.80
2019-05-06T20:32:12.208Z,12.70
2019-05-06T20:34:42.796Z,12.60
2019-05-06T20:37:12.864Z,12.50
2019-05-06T20:39:43.293Z,12.40
2019-05-06T20:42:12.753Z,12.30
2019-05-06T20:44:43.409Z,12.20
2019-05-06T20:47:13.089Z,12.20
2019-05-06T20:49:43.150Z,12.10
2019-05-06T20:52:12.243Z,12.10
2019-05-06T20:54:42.624Z,12.00
2019-05-06T20:57:12.305Z,12.00
2019-05-06T20:59:41.999Z,12.00
2019-05-06T21:02:12.483Z,12.00
2019-05-06T21:04:42.965Z,11.90
2019-05-06T21:07:12.375Z,11.90
2019-05-06T21:09:43.191Z,11.90
2019-05-06T21:12:11.267Z,11.80
2019-05-06T21:14:41.949Z,11.80
2019-05-06T21:17:12.112Z,11.80
2019-05-06T21:19:40.059Z,11.80
2019-05-06T21:22:08.930Z,11.80
2019-05-06T21:24:37.400Z,11.90
2019-05-06T21:27:05.919Z,11.80
2019-05-06T21:29:34.824Z,11.80
2019-05-06T21:32:03.292Z,11.80
2019-05-06T21:34:32.779Z,11.80
2019-05-06T21:37:02.865Z,11.80
2019-05-06T21:39:32.816Z,11.90
2019-05-06T21:42:01.537Z,11.90
2019-05-06T21:44:32.262Z,11.90
2019-05-06T21:47:00.166Z,11.90
2019-05-06T21:49:28.631Z,11.80
2019-05-06T21:51:57.102Z,11.80
2019-05-06T21:54:25.613Z,11.90
2019-05-06T21:56:54.042Z,11.90
2019-05-06T21:59:22.503Z,11.90
2019-05-06T22:01:52.059Z,11.90
2019-05-06T22:04:22.992Z,11.90
2019-05-06T22:06:52.457Z,11.90
2019-05-06T22:09:22.565Z,11.90
2019-05-06T22:11:52.952Z,11.90
2019-05-06T22:14:22.964Z,11.80
2019-05-06T22:16:51.513Z,11.80
2019-05-06T22:19:19.969Z,11.80
2019-05-06T22:22:03.398Z,11.80
2019-05-06T22:24:55.505Z,11.90
2019-05-06T22:27:22.304Z,11.80
2019-05-06T22:29:52.208Z,11.90
2019-05-06T22:32:23.061Z,11.90
2019-05-06T22:34:51.066Z,11.90
2019-05-06T22:37:21.992Z,11.90
2019-05-06T22:39:49.687Z,11.90
2019-05-06T22:42:18.126Z,11.90
2019-05-06T22:44:46.592Z,11.90
2019-05-06T22:47:15.034Z,12.00
2019-05-06T22:49:43.487Z,12.10
2019-05-06T22:52:12.592Z,12.20
2019-05-06T22:54:43.171Z,12.20
2019-05-06T22:57:12.037Z,12.30
2019-05-06T22:59:42.341Z,12.40
2019-05-06T23:02:13.121Z,12.40
2019-05-06T23:04:43.413Z,12.50
2019-05-06T23:07:14.061Z,12.50
2019-05-06T23:09:42.552Z,12.60
2019-05-06T23:12:12.365Z,12.60
2019-05-06T23:14:41.990Z,12.60
2019-05-06T23:17:12.666Z,12.60
2019-05-06T23:19:42.645Z,12.70
2019-05-06T23:22:12.001Z,12.70
2019-05-06T23:24:40.781Z,12.70
2019-05-06T23:27:09.510Z,12.70
2019-05-06T23:29:37.964Z,12.70
2019-05-06T23:32:06.559Z,12.70
2019-05-06T23:34:35.000Z,12.80
2019-05-06T23:37:09.357Z,12.80
2019-05-06T23:40:16.170Z,12.70
2019-05-06T23:43:22.161Z,12.60
2019-05-06T23:46:27.849Z,12.50
2019-05-06T23:49:33.032Z,12.40
2019-05-06T23:52:37.823Z,12.30
2019-05-06T23:55:44.095Z,12.20
2019-05-06T23:58:14.532Z,12.10
